Data for 01/24/2015

Time Sea-Level Adjusted Pressure Absolute Pressure Temperature Relative Humidity Dew Point   
(mb) (inHg) (mb) (inHg) (C) (F) (%) (C) (F)
00:05 1024 30.24 853 25.19 0.8 33.5 65 -5 23
00:10 1024 30.24 853 25.19 0.8 33.4 66 -5 23.1
00:15 1024 30.24 853 25.19 0.6 33.2 66 -5 22.9
00:20 1024 30.24 853 25.19 0.8 33.4 65 -5.1 22.9
00:25 1024 30.24 853 25.19 1.1 33.9 66 -4.7 23.6
00:30 1024 30.24 853 25.19 1 33.9 63 -5.2 22.7
00:35 1024 30.24 853 25.19 1.5 34.7 61 -5.3 22.5
00:40 1024 30.24 853 25.19 1.7 35 60 -5.3 22.4
00:45 1024 30.24 853 25.19 1.8 35.2 59 -5.4 22.2
00:50 1024 30.24 853 25.19 1.8 35.3 59 -5.3 22.5
00:55 1024 30.24 853 25.19 1.8 35.3 60 -5.1 22.9
01:00 1024 30.24 853 25.19 1.7 35 60 -5.3 22.5
01:05 1024 30.24 853 25.19 2.1 35.8 58 -5.4 22.3
01:10 1024 30.24 853 25.19 2.4 36.3 56 -5.4 22.2
01:15 1024 30.24 853 25.19 2.5 36.4 56 -5.5 22.1
01:20 1024 30.24 853 25.19 2.5 36.5 55 -5.6 22
01:25 1024 30.24 853 25.19 2.6 36.8 55 -5.4 22.2
01:30 1024 30.24 853 25.19 2.8 37 53 -5.8 21.6
01:35 1024 30.24 853 25.19 2.9 37.2 54 -5.5 22.1
01:40 1023 30.21 853 25.19 2.7 36.9 54 -5.6 21.9
01:45 1023 30.21 853 25.19 2.7 36.9 55 -5.4 22.3
01:50 1023 30.21 852 25.16 2.4 36.3 59 -4.9 23.2
01:55 1023 30.21 852 25.16 1.7 35.1 59 -5.4 22.4
02:00 1023 30.21 853 25.19 1.5 34.6 61 -5.3 22.5
02:05 1024 30.24 853 25.19 1.3 34.3 62 -5.1 22.7
02:10 1023 30.21 852 25.16 1.3 34.3 64 -4.8 23.3
02:15 1023 30.21 852 25.16 1.4 34.6 61 -5.2 22.6
02:20 1023 30.21 852 25.16 1.7 35 58 -5.8 21.6
02:25 1023 30.21 852 25.16 2.1 35.8 58 -5.3 22.5
02:30 1023 30.21 852 25.16 2.1 35.8 58 -5.4 22.4
02:35 1023 30.21 852 25.16 2.2 36 59 -4.9 23.1
02:40 1023 30.21 852 25.16 2.1 35.8 58 -5.3 22.4
02:45 1023 30.21 852 25.16 2.4 36.4 58 -5 23.1
02:50 1023 30.21 852 25.16 2 35.6 61 -4.8 23.3
02:55 1023 30.21 852 25.16 1.6 34.8 61 -5.1 22.8
03:00 1023 30.21 852 25.16 1.6 34.9 62 -5 23
03:05 1023 30.21 852 25.16 1.8 35.2 60 -5.2 22.6
03:10 1022 30.18 852 25.16 1.9 35.4 60 -5.1 22.8
03:15 1022 30.18 852 25.16 2 35.7 58 -5.3 22.4
03:20 1022 30.18 851 25.13 2.7 36.8 53 -5.9 21.4
03:25 1022 30.18 852 25.16 3.1 37.6 54 -5.4 22.4
03:30 1022 30.18 851 25.13 2.9 37.3 55 -5.3 22.5
03:35 1022 30.18 851 25.13 3 37.4 54 -5.5 22.1
03:40 1022 30.18 851 25.13 3.2 37.8 54 -5.3 22.5
03:45 1022 30.18 851 25.13 3.1 37.6 54 -5.3 22.4
03:50 1021 30.15 850 25.1 3.2 37.8 52 -5.7 21.7
03:55 1021 30.15 851 25.13 3.7 38.6 51 -5.6 21.9
04:00 1021 30.15 851 25.13 4 39.2 51 -5.3 22.5
04:05 1021 30.15 850 25.1 4 39.1 51 -5.1 22.7
04:10 1021 30.15 851 25.13 4 39.1 51 -5.3 22.5
04:15 1021 30.15 851 25.13 4.3 39.7 51 -5 22.9
04:20 1021 30.15 851 25.13 4.9 40.8 49 -4.9 23.1
04:25 1022 30.18 851 25.13 4.9 40.9 50 -4.7 23.6
04:30 1022 30.18 851 25.13 4.8 40.6 50 -4.7 23.5
04:35 1022 30.18 851 25.13 4.9 40.8 49 -4.9 23.1
04:40 1022 30.18 851 25.13 5 41 49 -4.8 23.4
04:45 1022 30.18 851 25.13 5 41 50 -4.6 23.6
04:50 1022 30.18 851 25.13 4.9 40.9 50 -4.5 23.8
04:55 1022 30.18 851 25.13 4.9 40.8 51 -4.3 24.3
05:00 1022 30.18 851 25.13 4.7 40.4 52 -4.3 24.3
05:05 1022 30.18 851 25.13 4.6 40.3 52 -4.4 24.2
05:10 1022 30.18 851 25.13 4.7 40.5 52 -4.4 24
05:15 1022 30.18 852 25.16 4.8 40.7 52 -4.2 24.5
05:20 1023 30.21 852 25.16 4.7 40.5 52 -4.2 24.4
05:25 1023 30.21 852 25.16 4.7 40.5 52 -4.3 24.2
05:30 1023 30.21 852 25.16 4.9 40.8 50 -4.6 23.7
05:35 1023 30.21 852 25.16 5.2 41.3 49 -4.6 23.8
05:40 1023 30.21 852 25.16 5.3 41.5 48 -4.9 23.2
05:45 1023 30.21 852 25.16 5.4 41.8 47 -4.9 23.2
05:50 1023 30.21 852 25.16 5.5 42 47 -4.9 23.1
05:55 1023 30.21 852 25.16 5.6 42.1 47 -5 23.1
06:00 1023 30.21 852 25.16 5.6 42.2 46 -4.9 23.1
06:05 1023 30.21 852 25.16 5.6 42.2 46 -5 23
06:10 1022 30.18 852 25.16 5.5 42 49 -4.5 24
06:15 1022 30.18 851 25.13 5.3 41.6 49 -4.5 23.9
06:20 1022 30.18 852 25.16 5.2 41.3 50 -4.3 24.2
06:25 1022 30.18 851 25.13 5.1 41.1 51 -4.3 24.3
06:30 1022 30.18 851 25.13 5.3 41.5 50 -4.4 24.1
06:35 1022 30.18 851 25.13 5.5 41.9 50 -4.1 24.6
06:40 1022 30.18 851 25.13 5.3 41.6 50 -4.2 24.4
06:45 1022 30.18 851 25.13 5.3 41.6 50 -4.2 24.4
06:50 1022 30.18 851 25.13 5.3 41.6 51 -4.1 24.7
06:55 1022 30.18 851 25.13 5.4 41.6 50 -4.3 24.2
07:00 1022 30.18 851 25.13 5.4 41.6 50 -4.2 24.5
07:05 1022 30.18 851 25.13 5.2 41.4 51 -4.1 24.6
07:10 1022 30.18 851 25.13 5.1 41.2 52 -4 24.8
07:15 1021 30.15 851 25.13 4.9 40.8 52 -4.1 24.5
07:20 1021 30.15 851 25.13 4.9 40.9 52 -4.1 24.7
07:25 1022 30.18 851 25.13 5 41 52 -4.1 24.7
07:30 1022 30.18 851 25.13 5.1 41.1 52 -3.9 25
07:35 1021 30.15 851 25.13 4.9 40.9 53 -3.9 25.1
07:40 1021 30.15 851 25.13 4.9 40.8 54 -3.7 25.4
07:45 1021 30.15 851 25.13 4.9 40.8 54 -3.7 25.3
07:50 1022 30.18 851 25.13 4.9 40.9 54 -3.6 25.6
07:55 1022 30.18 851 25.13 4.9 40.7 54 -3.6 25.6
08:00 1022 30.18 851 25.13 4.8 40.7 54 -3.6 25.4
08:05 1022 30.18 851 25.13 4.8 40.7 55 -3.4 25.8
08:10 1022 30.18 851 25.13 4.7 40.5 55 -3.6 25.5
08:15 1022 30.18 851 25.13 4.8 40.6 54 -3.6 25.5
08:20 1022 30.18 851 25.13 4.7 40.4 54 -3.9 25
08:25 1022 30.18 851 25.13 4.6 40.3 55 -3.7 25.4
08:30 1022 30.18 851 25.13 4.4 40 55 -3.8 25.2
08:35 1022 30.18 851 25.13 4.4 39.9 56 -3.6 25.4
08:40 1022 30.18 851 25.13 4.5 40 55 -3.8 25.2
08:45 1022 30.18 851 25.13 4.5 40.1 55 -3.7 25.3
08:50 1022 30.18 851 25.13 4.6 40.2 55 -3.7 25.4
08:55 1022 30.18 851 25.13 4.7 40.4 55 -3.5 25.7
09:00 1022 30.18 851 25.13 5 40.9 54 -3.6 25.6
09:05 1022 30.18 851 25.13 5 41 56 -3.1 26.4
09:10 1022 30.18 851 25.13 4.6 40.3 57 -3.1 26.4
09:15 1022 30.18 851 25.13 4.4 39.9 58 -3.1 26.4
09:20 1022 30.18 851 25.13 4.2 39.6 58 -3.2 26.2
09:25 1022 30.18 851 25.13 4.2 39.5 58 -3.2 26.2
09:30 1022 30.18 851 25.13 4.2 39.6 58 -3.2 26.2
09:35 1022 30.18 851 25.13 4.4 39.9 58 -3.2 26.3
09:40 1022 30.18 851 25.13 4.3 39.8 59 -3.1 26.5
09:45 1022 30.18 851 25.13 4.3 39.8 59 -3.1 26.5
09:50 1022 30.18 851 25.13 4.3 39.8 57 -3.3 26
09:55 1022 30.18 851 25.13 4.6 40.3 56 -3.5 25.7
10:00 1022 30.18 851 25.13 4.8 40.6 55 -3.4 25.9
10:05 1022 30.18 851 25.13 4.9 40.8 56 -3.2 26.2
10:10 1022 30.18 851 25.13 4.9 40.8 55 -3.4 25.8
10:15 1022 30.18 851 25.13 5 41 55 -3.3 26.1
10:20 1022 30.18 851 25.13 4.9 40.9 55 -3.3 26.1
10:25 1022 30.18 851 25.13 4.8 40.6 56 -3.2 26.2
10:30 1022 30.18 851 25.13 4.6 40.3 57 -3.2 26.2
10:35 1022 30.18 851 25.13 4.7 40.4 57 -3.1 26.4
10:40 1022 30.18 851 25.13 4.8 40.6 57 -3 26.7
10:45 1022 30.18 851 25.13 4.8 40.7 58 -2.9 26.9
10:50 1022 30.18 851 25.13 4.7 40.5 58 -2.9 26.8
10:55 1022 30.18 851 25.13 4.8 40.7 57 -2.9 26.8
11:00 1022 30.18 851 25.13 5.1 41.2 56 -2.9 26.9
11:05 1022 30.18 851 25.13 5.5 41.9 56 -2.6 27.4
11:10 1022 30.18 851 25.13 5.5 42 57 -2.4 27.7
11:15 1022 30.18 852 25.16 5.6 42 58 -2.1 28.2
11:20 1023 30.21 852 25.16 5.5 41.9 56 -2.6 27.4
11:25 1023 30.21 852 25.16 5.6 42 55 -2.7 27.2
11:30 1023 30.21 852 25.16 5.9 42.6 54 -2.7 27.1
11:35 1023 30.21 852 25.16 6.2 43.1 53 -2.6 27.4
11:40 1022 30.18 852 25.16 6.4 43.6 53 -2.5 27.5
11:45 1023 30.21 852 25.16 6.6 43.9 52 -2.5 27.6
11:50 1023 30.21 852 25.16 6.8 44.2 52 -2.3 27.9
11:55 1023 30.21 852 25.16 6.5 43.7 54 -2.1 28.2
12:00 1023 30.21 852 25.16 6.2 43.2 55 -2.2 28.1
12:05 1023 30.21 852 25.16 6.2 43.1 55 -2.1 28.3
12:10 1023 30.21 852 25.16 6.2 43.1 55 -2.1 28.2
12:15 1022 30.18 852 25.16 6.1 43.1 56 -2 28.4
12:20 1022 30.18 852 25.16 6.2 43.2 55 -2 28.3
12:25 1023 30.21 852 25.16 6.5 43.6 56 -1.6 29.1
12:30 1023 30.21 852 25.16 6.5 43.7 58 -1.1 30.1
12:35 1023 30.21 852 25.16 6.4 43.5 59 -1 30.3
12:40 1023 30.21 852 25.16 6.4 43.5 59 -1 30.3
12:45 1023 30.21 852 25.16 6.4 43.6 60 -0.7 30.7
12:50 1023 30.21 852 25.16 6.2 43.1 61 -0.8 30.6
12:55 1023 30.21 852 25.16 6 42.8 63 -0.4 31.2
13:00 1023 30.21 852 25.16 5.9 42.7 66 0.1 32.2
13:05 1023 30.21 852 25.16 5.9 42.7 66 0 32
13:10 1023 30.21 852 25.16 5.9 42.6 66 0.1 32.1
13:15 1023 30.21 852 25.16 5.8 42.4 67 0.1 32.1
13:20 1023 30.21 852 25.16 5.7 42.3 69 0.4 32.7
13:25 1023 30.21 852 25.16 5.8 42.5 68 0.4 32.7
13:30 1023 30.21 852 25.16 5.9 42.6 69 0.7 33.2
13:35 1023 30.21 852 25.16 5.8 42.5 70 0.8 33.4
13:40 1023 30.21 852 25.16 5.7 42.3 70 0.6 33.1
13:45 1023 30.21 852 25.16 5.7 42.2 70 0.7 33.2
13:50 1023 30.21 853 25.19 5.7 42.2 70 0.6 33
13:55 1023 30.21 852 25.16 5.8 42.4 69 0.5 33
14:00 1023 30.21 852 25.16 5.9 42.6 68 0.5 32.9
14:05 1023 30.21 852 25.16 6 42.7 68 0.6 33
14:10 1023 30.21 852 25.16 6 42.8 67 0.4 32.8
14:15 1023 30.21 852 25.16 6.1 42.9 67 0.4 32.8
14:20 1023 30.21 852 25.16 6.1 42.9 67 0.5 32.8
14:25 1023 30.21 852 25.16 6.1 43 67 0.5 32.8
14:30 1023 30.21 853 25.19 6.1 43 68 0.6 33.2
14:35 1023 30.21 853 25.19 6 42.9 69 0.7 33.3
14:40 1024 30.24 853 25.19 6 42.7 70 1 33.7
14:45 1023 30.21 853 25.19 5.9 42.7 70 0.9 33.6
14:50 1023 30.21 853 25.19 5.7 42.3 71 0.9 33.7
14:55 1023 30.21 853 25.19 5.6 42.1 72 0.9 33.7
15:00 1023 30.21 853 25.19 5.6 42.1 72 0.9 33.6
15:05 1023 30.21 852 25.16 5.5 41.9 72 0.9 33.6
15:10 1023 30.21 852 25.16 5.6 42.2 70 0.6 33.1
15:15 1023 30.21 852 25.16 5.9 42.6 69 0.7 33.2
15:20 1023 30.21 852 25.16 6 42.8 67 0.4 32.6
15:25 1023 30.21 852 25.16 6.3 43.3 65 0.2 32.4
15:30 1023 30.21 852 25.16 6 42.9 71 1.2 34.1
15:35 1023 30.21 852 25.16 5.6 42.2 70 0.6 33.1
15:40 1023 30.21 852 25.16 5.5 41.9 71 0.6 33.1
15:45 1023 30.21 852 25.16 5.6 42.1 69 0.3 32.6
15:50 1023 30.21 852 25.16 5.8 42.4 68 0.4 32.8
15:55 1023 30.21 852 25.16 5.9 42.6 67 0.3 32.5
16:00 1023 30.21 852 25.16 5.7 42.3 67 0 32.1
16:05 1023 30.21 852 25.16 5.9 42.5 66 0 32
16:10 1023 30.21 852 25.16 6.1 42.9 65 0 32.1
16:15 1023 30.21 853 25.19 6.1 42.9 66 0.2 32.3
16:20 1023 30.21 853 25.19 6.1 43 67 0.4 32.7
16:25 1023 30.21 853 25.19 6 42.7 68 0.6 33.1
16:30 1024 30.24 853 25.19 5.7 42.3 69 0.6 33
16:35 1024 30.24 853 25.19 5.4 41.8 71 0.7 33.2
16:40 1024 30.24 853 25.19 5.3 41.5 70 0.2 32.4
16:45 1024 30.24 853 25.19 5.5 41.9 68 0.1 32.2
16:50 1024 30.24 853 25.19 5.8 42.4 68 0.3 32.6
16:55 1024 30.24 853 25.19 5.8 42.4 69 0.6 33.1
17:00 1024 30.24 853 25.19 5.6 42 69 0.4 32.6
17:05 1024 30.24 853 25.19 5.5 41.8 69 0.3 32.6
17:10 1024 30.24 853 25.19 5.5 41.8 69 0.3 32.5
17:15 1024 30.24 853 25.19 5.5 41.9 69 0.2 32.4
17:20 1024 30.24 853 25.19 5.5 41.9 69 0.2 32.4
17:25 1024 30.24 853 25.19 5.5 41.9 68 0.1 32.2
17:30 1024 30.24 853 25.19 5.5 42 67 -0 32
17:35 1024 30.24 853 25.19 5.5 41.9 68 0.1 32.1
17:40 1024 30.24 853 25.19 5.5 41.9 67 -0.2 31.6
17:45 1024 30.24 853 25.19 5.7 42.3 66 -0.2 31.6
17:50 1024 30.24 853 25.19 5.9 42.7 64 -0.3 31.5
17:55 1024 30.24 853 25.19 6 42.7 65 -0.1 31.8
18:00 1024 30.24 853 25.19 6.1 43 63 -0.3 31.5
18:05 1024 30.24 853 25.19 6.1 43 64 -0.1 31.8
18:10 1024 30.24 853 25.19 6.1 43.1 62 -0.6 30.9
18:15 1024 30.24 853 25.19 6.4 43.5 62 -0.5 31.2
18:20 1024 30.24 854 25.22 6.4 43.5 61 -0.6 30.9
18:25 1024 30.24 854 25.22 6.5 43.7 59 -0.9 30.5
18:30 1024 30.24 854 25.22 6.6 43.9 60 -0.6 30.9
18:35 1024 30.24 854 25.22 6.4 43.4 61 -0.7 30.8
18:40 1025 30.27 854 25.22 6.2 43.2 61 -0.8 30.6
18:45 1025 30.27 854 25.22 6.2 43.1 62 -0.6 30.9
18:50 1025 30.27 854 25.22 6.2 43.1 60 -1 30.1
18:55 1025 30.27 854 25.22 6.5 43.6 59 -0.8 30.5
19:00 1025 30.27 854 25.22 6.4 43.6 60 -0.9 30.5
19:05 1025 30.27 854 25.22 6.4 43.5 61 -0.6 30.8
19:10 1025 30.27 854 25.22 6.2 43.2 61 -0.8 30.6
19:15 1025 30.27 854 25.22 6.1 42.9 62 -0.6 30.9
19:20 1025 30.27 854 25.22 5.8 42.5 61 -1 30.2
19:25 1025 30.27 854 25.22 5.9 42.7 60 -1.3 29.7
19:30 1025 30.27 854 25.22 6.2 43.1 59 -1.3 29.7
19:35 1025 30.27 854 25.22 6.3 43.3 58 -1.4 29.4
19:40 1025 30.27 854 25.22 6.4 43.4 58 -1.3 29.6
19:45 1025 30.27 854 25.22 6.4 43.5 58 -1.4 29.5
19:50 1025 30.27 854 25.22 6.5 43.7 57 -1.4 29.5
19:55 1025 30.27 854 25.22 6.5 43.7 57 -1.4 29.5
20:00 1025 30.27 854 25.22 6.6 43.8 57 -1.3 29.7
20:05 1025 30.27 854 25.22 6.3 43.3 61 -0.6 30.9
20:10 1025 30.27 854 25.22 5.5 41.9 64 -0.8 30.6
20:15 1025 30.27 854 25.22 5.4 41.8 62 -1.2 29.9
20:20 1025 30.27 854 25.22 5.8 42.5 60 -1.2 29.8
20:25 1025 30.27 854 25.22 6 42.8 60 -1.1 30
20:30 1025 30.27 854 25.22 6.1 42.9 60 -1.2 29.9
20:35 1025 30.27 854 25.22 6.1 43 60 -1.1 30
20:40 1025 30.27 854 25.22 6.1 42.9 60 -1.2 29.9
20:45 1025 30.27 854 25.22 6 42.9 60 -1.2 29.9
20:50 1025 30.27 854 25.22 6 42.9 61 -1 30.2
20:55 1025 30.27 854 25.22 5.9 42.6 61 -1.2 29.9
21:00 1025 30.27 854 25.22 5.9 42.6 61 -1 30.3
21:05 1025 30.27 855 25.25 5.7 42.3 61 -1.3 29.7
21:10 1025 30.27 854 25.22 5.9 42.7 60 -1.3 29.7
21:15 1025 30.27 855 25.25 6 42.7 60 -1.2 29.9
21:20 1025 30.27 855 25.25 5.9 42.5 60 -1.2 29.8
21:25 1025 30.27 854 25.22 5.6 42 62 -1.2 29.8
21:30 1025 30.27 854 25.22 5.4 41.7 62 -1.2 29.8
21:35 1025 30.27 854 25.22 5.1 41.2 66 -0.8 30.6
21:40 1025 30.27 854 25.22 5.1 41.1 67 -0.6 30.9
21:45 1025 30.27 854 25.22 5.3 41.5 67 -0.3 31.4
21:50 1025 30.27 854 25.22 5.3 41.6 68 -0 32
21:55 1025 30.27 854 25.22 5.3 41.5 68 -0 32
22:00 1025 30.27 854 25.22 5.4 41.8 68 -0 31.9
22:05 1025 30.27 854 25.22 5.5 42 67 -0.1 31.8
22:10 1025 30.27 854 25.22 6 42.7 65 -0.1 31.8
22:15 1025 30.27 854 25.22 5.9 42.7 66 0 32.1
22:20 1024 30.24 854 25.22 5.8 42.4 67 0.1 32.1
22:25 1025 30.27 854 25.22 5.6 42.1 68 0.1 32.1
22:30 1024 30.24 854 25.22 5.5 41.9 68 0.1 32.1
22:35 1024 30.24 854 25.22 5.5 41.9 68 0 32
22:40 1024 30.24 854 25.22 5.6 42.1 67 0 32.1
22:45 1024 30.24 854 25.22 5.7 42.3 68 0.2 32.3
22:50 1024 30.24 853 25.19 5.5 41.9 67 -0 32
22:55 1024 30.24 853 25.19 5.2 41.3 68 -0.2 31.7
23:00 1024 30.24 853 25.19 5.1 41.2 69 -0.1 31.8
23:05 1024 30.24 853 25.19 5.5 41.8 68 -0 31.9
23:10 1024 30.24 853 25.19 5.9 42.7 67 0.3 32.5
23:15 1024 30.24 853 25.19 5.8 42.5 68 0.3 32.6
23:20 1024 30.24 853 25.19 5.7 42.2 69 0.4 32.7
23:25 1024 30.24 853 25.19 5.6 42.1 70 0.5 33
23:30 1024 30.24 853 25.19 5.4 41.7 71 0.6 33
23:35 1024 30.24 853 25.19 5.3 41.5 72 0.7 33.2
23:40 1024 30.24 853 25.19 5.2 41.4 72 0.6 33.1
23:45 1024 30.24 853 25.19 5.2 41.4 72 0.7 33.2
23:50 1024 30.24 853 25.19 5.3 41.5 71 0.4 32.7
23:55 1024 30.24 853 25.19 5.4 41.7 70 0.4 32.7
24:00 1024 30.24 853 25.19 5.5 41.9 69 0.3 32.5